Terminal Aerodrome Forecast
Issued by NWS Wilmington, OH

Current Version | Previous Version | Graphics & Text | Print | Product List | Glossary On
Versions: 1 2 3 4 5 6 7 8 9 10 11 12 13 14 15 16 17 18 19 20
000
FTUS41 KILN 131700
TAFCMH
TAF
KCMH 131740Z 1318/1418 21022G31KT P6SM FEW040 BKN200
     FM132300 18014G22KT P6SM SCT050 BKN150
     FM141200 19018G28KT P6SM VCSH SCT050 OVC080
     FM141400 20022G37KT P6SM -SHRA BKN035 OVC120=

USA.gov is the U.S. government's official web portal to all federal, state and local government web resources and services.